Time;durP1;ratioP1;P1;durP2;ratioP2;P2;SDS_P1;SDS_P2;PMS_P1;PMS_P2;Temp;Humidity;BMP_temperature;BMP_pressure;BME280_temperature;BME280_humidity;BME280_pressure;Samples;Min_cycle;Max_cycle;Signal;HPM_P1;HPM_P2
2023/05/04 00:00:06;;;;;;;;;;;12.20;79.60;;;;;;5047386;28;19913;-68
2023/05/04 00:02:32;;;;;;;;;;;12.10;79.60;;;;;;5047416;28;19942;-68
2023/05/04 00:04:57;;;;;;;;;;;12.10;79.40;;;;;;5048203;28;19978;-68
2023/05/04 00:07:23;;;;;;;;;;;12.10;79.70;;;;;;5047929;28;19917;-68
2023/05/04 00:09:49;;;;;;;;;;;12.10;79.80;;;;;;5047496;28;20274;-68
2023/05/04 00:12:14;;;;;;;;;;;12.00;79.80;;;;;;5046724;28;20502;-69
2023/05/04 00:14:40;;;;;;;;;;;12.00;79.80;;;;;;5047722;28;20332;-68
2023/05/04 00:17:06;;;;;;;;;;;12.00;80.00;;;;;;5046719;28;19920;-69
2023/05/04 00:19:33;;;;;;;;;;;11.90;79.90;;;;;;5047662;28;19920;-68
2023/05/04 00:21:59;;;;;;;;;;;11.90;80.00;;;;;;5047265;28;20440;-68
2023/05/04 00:24:24;;;;;;;;;;;11.90;80.00;;;;;;5047757;28;19934;-68
2023/05/04 00:26:50;;;;;;;;;;;11.90;80.10;;;;;;5047520;28;19908;-68
2023/05/04 00:29:16;;;;;;;;;;;11.80;80.10;;;;;;5029709;28;20000;-69
2023/05/04 00:31:41;;;;;;;;;;;11.80;80.20;;;;;;5029654;28;19952;-68
2023/05/04 00:34:07;;;;;;;;;;;11.80;80.20;;;;;;5047619;28;19919;-69
2023/05/04 00:36:33;;;;;;;;;;;11.80;80.20;;;;;;5047608;28;19913;-69
2023/05/04 00:38:58;;;;;;;;;;;11.70;80.40;;;;;;5047422;28;20437;-69
2023/05/04 00:41:24;;;;;;;;;;;11.70;80.40;;;;;;5047402;28;19908;-68
2023/05/04 00:43:49;;;;;;;;;;;11.70;80.40;;;;;;5047318;28;20395;-68
2023/05/04 00:46:15;;;;;;;;;;;11.70;80.50;;;;;;5047344;28;19955;-68
2023/05/04 00:48:42;;;;;;;;;;;11.60;80.50;;;;;;5047301;28;19913;-68
2023/05/04 00:51:09;;;;;;;;;;;11.60;80.40;;;;;;5047192;28;20004;-69
2023/05/04 00:53:35;;;;;;;;;;;11.60;80.60;;;;;;5046962;28;19948;-68
2023/05/04 00:56:01;;;;;;;;;;;11.60;80.60;;;;;;5047108;28;19948;-69
2023/05/04 00:58:27;;;;;;;;;;;11.60;80.60;;;;;;5046366;28;19921;-69
2023/05/04 01:00:53;;;;;;;;;;;11.50;80.60;;;;;;5046452;28;20701;-68
2023/05/04 01:03:18;;;;;;;;;;;11.50;80.80;;;;;;5046519;28;19973;-69
2023/05/04 01:06:06;;;;;;;;;;;11.50;80.80;;;;;;5028372;28;19971;-68
2023/05/04 01:08:34;;;;;;;;;;;11.40;80.80;;;;;;5046924;28;20003;-69
2023/05/04 01:11:02;;;;;;;;;;;11.40;80.80;;;;;;5046747;28;19937;-68
2023/05/04 01:13:31;;;;;;;;;;;11.40;80.80;;;;;;5046644;28;20335;-69
2023/05/04 01:15:57;;;;;;;;;;;11.40;81.00;;;;;;5028742;28;20363;-69
2023/05/04 01:18:22;;;;;;;;;;;11.40;81.00;;;;;;5047043;28;19909;-68
2023/05/04 01:20:48;;;;;;;;;;;11.30;81.10;;;;;;5046729;28;19920;-68
2023/05/04 01:23:14;;;;;;;;;;;11.30;81.20;;;;;;5045980;28;19921;-68
2023/05/04 01:25:55;;;;;;;;;;;11.30;81.10;;;;;;5046967;28;20020;-68
2023/05/04 01:28:44;;;;;;;;;;;11.30;81.20;;;;;;5046319;28;19981;-69
2023/05/04 01:31:12;;;;;;;;;;;11.30;81.30;;;;;;5036013;28;19917;-68
2023/05/04 01:33:38;;;;;;;;;;;11.30;81.10;;;;;;5046184;28;19920;-69
2023/05/04 01:36:04;;;;;;;;;;;11.30;81.30;;;;;;5046419;28;20257;-69
2023/05/04 01:38:30;;;;;;;;;;;11.20;81.20;;;;;;5028409;28;20349;-68
2023/05/04 01:40:55;;;;;;;;;;;11.20;81.30;;;;;;5046473;28;19909;-68
2023/05/04 01:43:21;;;;;;;;;;;11.20;81.40;;;;;;5046249;27;20409;-68
2023/05/04 01:45:47;;;;;;;;;;;11.20;81.40;;;;;;5046658;28;19924;-68
2023/05/04 01:48:12;;;;;;;;;;;11.10;81.40;;;;;;5046289;28;19916;-68
2023/05/04 01:50:38;;;;;;;;;;;11.10;81.20;;;;;;5046186;28;19920;-69
2023/05/04 01:53:03;;;;;;;;;;;11.10;81.50;;;;;;5045953;28;19933;-68
2023/05/04 01:55:29;;;;;;;;;;;11.10;81.40;;;;;;5046518;28;20334;-69
2023/05/04 01:57:54;;;;;;;;;;;11.10;81.50;;;;;;5028820;28;19919;-68
2023/05/04 02:00:19;;;;;;;;;;;11.00;81.60;;;;;;5045424;28;19909;-69
2023/05/04 02:02:45;;;;;;;;;;;11.00;81.60;;;;;;5045879;28;19909;-68
2023/05/04 02:05:10;;;;;;;;;;;11.00;81.60;;;;;;5046109;28;20492;-69
2023/05/04 02:07:36;;;;;;;;;;;11.00;81.50;;;;;;5045818;28;19909;-68
2023/05/04 02:10:02;;;;;;;;;;;11.00;81.60;;;;;;5045840;28;19956;-69
2023/05/04 02:12:28;;;;;;;;;;;11.00;81.50;;;;;;5045119;28;20085;-69
2023/05/04 02:14:53;;;;;;;;;;;11.00;81.50;;;;;;5045462;28;19912;-68
2023/05/04 02:17:18;;;;;;;;;;;11.00;81.60;;;;;;5044899;28;19940;-69
2023/05/04 02:19:44;;;;;;;;;;;10.90;81.60;;;;;;5044930;28;19971;-68
2023/05/04 02:22:09;;;;;;;;;;;10.90;81.50;;;;;;5027241;28;20011;-69
2023/05/04 02:24:35;;;;;;;;;;;10.90;81.40;;;;;;5045661;28;19920;-68
2023/05/04 02:27:01;;;;;;;;;;;10.90;81.70;;;;;;5045678;28;19947;-68
2023/05/04 02:29:27;;;;;;;;;;;10.90;81.50;;;;;;5045576;28;19989;-69
2023/05/04 02:31:52;;;;;;;;;;;10.90;81.70;;;;;;5045477;28;19909;-68
2023/05/04 02:34:17;;;;;;;;;;;10.80;81.80;;;;;;5045025;28;20496;-68
2023/05/04 02:36:43;;;;;;;;;;;10.80;81.60;;;;;;5045686;28;19920;-68
2023/05/04 02:39:08;;;;;;;;;;;10.80;81.50;;;;;;5045713;28;19912;-69
2023/05/04 02:41:34;;;;;;;;;;;10.80;81.80;;;;;;5045400;28;20410;-68
2023/05/04 02:43:59;;;;;;;;;;;10.80;81.70;;;;;;5045488;28;20640;-69
2023/05/04 02:46:25;;;;;;;;;;;10.80;81.70;;;;;;5045375;28;19962;-69
2023/05/04 02:48:51;;;;;;;;;;;10.70;81.70;;;;;;5045533;28;19924;-68
2023/05/04 02:51:17;;;;;;;;;;;10.70;81.80;;;;;;5045324;28;20023;-68
2023/05/04 02:53:43;;;;;;;;;;;10.70;81.70;;;;;;5037563;28;19917;-68
2023/05/04 02:56:08;;;;;;;;;;;10.70;81.60;;;;;;5045420;28;19916;-68
2023/05/04 02:58:34;;;;;;;;;;;10.70;81.80;;;;;;5043941;28;19920;-68
2023/05/04 03:00:59;;;;;;;;;;;10.70;81.90;;;;;;5041472;28;19917;-68
2023/05/04 03:03:25;;;;;;;;;;;10.60;81.80;;;;;;5044855;28;19909;-68
2023/05/04 03:05:50;;;;;;;;;;;10.60;81.80;;;;;;5044957;28;19913;-69
2023/05/04 03:08:16;;;;;;;;;;;10.70;82.00;;;;;;5027412;28;19913;-68
2023/05/04 03:10:41;;;;;;;;;;;10.60;82.70;;;;;;5045160;28;20365;-69
2023/05/04 03:13:07;;;;;;;;;;;10.60;81.90;;;;;;5044911;28;19913;-69
2023/05/04 03:15:32;;;;;;;;;;;10.60;82.00;;;;;;5045332;28;20445;-68
2023/05/04 03:17:58;;;;;;;;;;;10.60;82.10;;;;;;5044786;28;19912;-68
2023/05/04 03:20:24;;;;;;;;;;;10.60;82.00;;;;;;5045014;28;19958;-69
2023/05/04 03:22:49;;;;;;;;;;;10.50;82.10;;;;;;5044572;28;20072;-68
2023/05/04 03:25:15;;;;;;;;;;;10.60;82.00;;;;;;5045053;28;20477;-68
2023/05/04 03:27:40;;;;;;;;;;;10.50;82.10;;;;;;5045071;28;19923;-68
2023/05/04 03:30:06;;;;;;;;;;;10.50;82.10;;;;;;5044676;28;20023;-69
2023/05/04 03:32:32;;;;;;;;;;;10.50;82.20;;;;;;5044049;28;20361;-68
2023/05/04 03:34:58;;;;;;;;;;;10.50;82.20;;;;;;5045012;28;19916;-68
2023/05/04 03:37:23;;;;;;;;;;;10.50;82.30;;;;;;5044658;28;20305;-68
2023/05/04 03:39:49;;;;;;;;;;;10.40;83.00;;;;;;5045027;28;20416;-68
2023/05/04 03:42:14;;;;;;;;;;;10.40;82.40;;;;;;5044581;28;19909;-68
2023/05/04 03:44:40;;;;;;;;;;;10.40;82.40;;;;;;5045489;28;19926;-68
2023/05/04 03:47:06;;;;;;;;;;;10.40;82.50;;;;;;5048020;28;19916;-68
2023/05/04 03:49:32;;;;;;;;;;;10.40;82.60;;;;;;5048143;28;19923;-69
2023/05/04 03:51:58;;;;;;;;;;;10.40;82.60;;;;;;5047809;28;19909;-68
2023/05/04 03:54:23;;;;;;;;;;;10.30;82.50;;;;;;5047776;28;20004;-68
2023/05/04 03:56:49;;;;;;;;;;;10.30;82.60;;;;;;5047838;28;19956;-68
2023/05/04 03:59:14;;;;;;;;;;;10.30;82.60;;;;;;5039415;28;19917;-68
2023/05/04 04:01:40;;;;;;;;;;;10.30;82.80;;;;;;5028331;28;20011;-68
2023/05/04 04:04:05;;;;;;;;;;;10.30;82.70;;;;;;5028153;28;19909;-69
2023/05/04 04:06:31;;;;;;;;;;;10.30;82.80;;;;;;5037925;28;19919;-68
2023/05/04 04:08:56;;;;;;;;;;;10.30;82.80;;;;;;5026573;28;19983;-69
2023/05/04 04:11:22;;;;;;;;;;;10.20;82.70;;;;;;5044690;28;19917;-68
2023/05/04 04:13:47;;;;;;;;;;;10.20;82.80;;;;;;5047210;28;19913;-68
2023/05/04 04:16:13;;;;;;;;;;;10.20;82.80;;;;;;5047370;28;19946;-68
2023/05/04 04:18:39;;;;;;;;;;;10.20;82.80;;;;;;5047828;28;19927;-68
2023/05/04 04:21:04;;;;;;;;;;;10.20;82.80;;;;;;5029764;28;19920;-68
2023/05/04 04:23:30;;;;;;;;;;;10.10;82.70;;;;;;5047467;28;19956;-68
2023/05/04 04:25:55;;;;;;;;;;;10.20;82.90;;;;;;5047630;28;19916;-69
2023/05/04 04:28:21;;;;;;;;;;;10.10;82.80;;;;;;5047570;28;19979;-68
2023/05/04 04:30:47;;;;;;;;;;;10.10;82.80;;;;;;5047576;28;19921;-68
2023/05/04 04:33:12;;;;;;;;;;;10.10;82.90;;;;;;5047327;28;19913;-68
2023/05/04 04:35:37;;;;;;;;;;;10.10;82.80;;;;;;5047704;28;20638;-68
2023/05/04 04:38:03;;;;;;;;;;;10.10;83.00;;;;;;5047706;28;20016;-68
2023/05/04 04:40:29;;;;;;;;;;;10.10;83.00;;;;;;5047404;28;19957;-68
2023/05/04 04:42:55;;;;;;;;;;;10.10;83.00;;;;;;5047214;28;19920;-68
2023/05/04 04:45:20;;;;;;;;;;;10.00;83.00;;;;;;5047506;28;19920;-68
2023/05/04 04:47:46;;;;;;;;;;;10.00;82.90;;;;;;5047438;28;20023;-68
2023/05/04 04:50:12;;;;;;;;;;;10.00;83.00;;;;;;5047303;28;20658;-68
2023/05/04 04:52:39;;;;;;;;;;;10.00;82.90;;;;;;5046743;28;19909;-69
2023/05/04 04:55:06;;;;;;;;;;;10.00;83.00;;;;;;5042439;28;19913;-68
2023/05/04 04:57:32;;;;;;;;;;;10.00;83.00;;;;;;5045597;28;20258;-68
2023/05/04 04:59:57;;;;;;;;;;;10.00;83.10;;;;;;5029022;28;19920;-68
2023/05/04 05:02:23;;;;;;;;;;;10.00;83.00;;;;;;5028336;28;20318;-69
2023/05/04 05:04:48;;;;;;;;;;;10.00;83.10;;;;;;5046933;28;19934;-68
2023/05/04 05:07:14;;;;;;;;;;;10.00;83.10;;;;;;5046958;28;19913;-69
2023/05/04 05:09:39;;;;;;;;;;;10.00;83.10;;;;;;5047025;28;19974;-68
2023/05/04 05:12:05;;;;;;;;;;;10.00;83.10;;;;;;5046719;28;20396;-68
2023/05/04 05:14:31;;;;;;;;;;;10.00;83.20;;;;;;5047093;28;20551;-68
2023/05/04 05:16:57;;;;;;;;;;;10.00;83.20;;;;;;5046643;28;19927;-68
2023/05/04 05:19:23;;;;;;;;;;;10.00;83.20;;;;;;5046973;28;20345;-69
2023/05/04 05:21:48;;;;;;;;;;;10.00;83.20;;;;;;5028397;28;19921;-69
2023/05/04 05:24:15;;;;;;;;;;;10.00;83.10;;;;;;5046798;28;19909;-68
2023/05/04 05:26:41;;;;;;;;;;;10.00;83.10;;;;;;5046633;28;19956;-68
2023/05/04 05:29:07;;;;;;;;;;;10.00;83.10;;;;;;5046594;28;19917;-68
2023/05/04 05:31:32;;;;;;;;;;;10.00;83.20;;;;;;5028680;28;19912;-69
2023/05/04 05:33:58;;;;;;;;;;;10.00;83.00;;;;;;5046458;28;20344;-69
2023/05/04 05:36:23;;;;;;;;;;;10.00;83.20;;;;;;5046491;28;20385;-69
2023/05/04 05:38:49;;;;;;;;;;;10.00;83.10;;;;;;5046532;28;19962;-68
2023/05/04 05:41:15;;;;;;;;;;;10.00;83.10;;;;;;5046567;28;19912;-68
2023/05/04 05:43:40;;;;;;;;;;;10.00;83.00;;;;;;5046252;28;19915;-69
2023/05/04 05:46:06;;;;;;;;;;;10.00;82.90;;;;;;5046279;28;19985;-68
2023/05/04 05:48:32;;;;;;;;;;;10.00;83.10;;;;;;5046362;28;20016;-68
2023/05/04 05:50:57;;;;;;;;;;;10.00;83.10;;;;;;5045898;28;19916;-68
2023/05/04 05:53:23;;;;;;;;;;;10.00;83.00;;;;;;5045937;28;19917;-68
2023/05/04 05:55:48;;;;;;;;;;;10.00;82.90;;;;;;5040607;28;19913;-69
2023/05/04 05:58:14;;;;;;;;;;;10.00;82.90;;;;;;5027194;28;19913;-69
2023/05/04 06:00:39;;;;;;;;;;;10.10;83.10;;;;;;5043188;28;19912;-69
2023/05/04 06:03:05;;;;;;;;;;;10.10;82.90;;;;;;5044076;28;19920;-69
2023/05/04 06:05:32;;;;;;;;;;;10.10;82.90;;;;;;5026981;28;19909;-68
2023/05/04 06:07:58;;;;;;;;;;;10.10;82.70;;;;;;5044611;28;20415;-68
2023/05/04 06:10:23;;;;;;;;;;;10.10;82.70;;;;;;5045244;28;19942;-69
2023/05/04 06:12:49;;;;;;;;;;;10.10;82.80;;;;;;5044627;28;19912;-69
2023/05/04 06:15:14;;;;;;;;;;;10.10;82.80;;;;;;5026948;28;19913;-68
2023/05/04 06:17:40;;;;;;;;;;;10.20;82.80;;;;;;5027288;28;19927;-69
2023/05/04 06:20:06;;;;;;;;;;;10.20;82.80;;;;;;5045958;28;20017;-68
2023/05/04 06:22:31;;;;;;;;;;;10.20;82.80;;;;;;5045310;28;19959;-69
2023/05/04 06:24:57;;;;;;;;;;;10.30;82.80;;;;;;5045822;28;19919;-69
2023/05/04 06:27:24;;;;;;;;;;;10.30;82.80;;;;;;5027778;28;19957;-69
2023/05/04 06:29:50;;;;;;;;;;;10.30;82.80;;;;;;5045740;28;19913;-69
2023/05/04 06:32:16;;;;;;;;;;;10.30;82.70;;;;;;5045173;28;19961;-68
2023/05/04 06:34:41;;;;;;;;;;;10.40;82.80;;;;;;5045782;28;20005;-69
2023/05/04 06:37:07;;;;;;;;;;;10.30;82.80;;;;;;5027089;28;19913;-68
2023/05/04 06:39:32;;;;;;;;;;;10.40;82.80;;;;;;5045531;28;20281;-69
2023/05/04 06:41:58;;;;;;;;;;;10.50;82.80;;;;;;5045233;28;19940;-68
2023/05/04 06:44:24;;;;;;;;;;;10.50;82.90;;;;;;5028037;28;19917;-69
2023/05/04 06:46:50;;;;;;;;;;;10.50;82.80;;;;;;5045519;28;19920;-69
2023/05/04 06:49:16;;;;;;;;;;;10.50;82.80;;;;;;5045423;28;20277;-68
2023/05/04 06:51:42;;;;;;;;;;;10.50;82.80;;;;;;5045076;28;19913;-69
2023/05/04 06:54:07;;;;;;;;;;;10.50;82.70;;;;;;5042358;28;19917;-68
2023/05/04 06:56:33;;;;;;;;;;;10.60;82.80;;;;;;5043547;28;20424;-69
2023/05/04 06:58:59;;;;;;;;;;;10.60;82.80;;;;;;5045253;28;20340;-68
2023/05/04 07:01:24;;;;;;;;;;;10.60;82.70;;;;;;5045384;28;19912;-68
2023/05/04 07:03:50;;;;;;;;;;;10.60;82.70;;;;;;5045070;28;19917;-68
2023/05/04 07:06:16;;;;;;;;;;;10.60;82.80;;;;;;5044929;28;19944;-69
2023/05/04 07:08:41;;;;;;;;;;;10.70;82.70;;;;;;5044653;28;19956;-69
2023/05/04 07:11:08;;;;;;;;;;;10.70;82.70;;;;;;5044908;28;20486;-68
2023/05/04 07:13:33;;;;;;;;;;;10.70;82.60;;;;;;5044615;28;19920;-68
2023/05/04 07:15:59;;;;;;;;;;;10.80;82.60;;;;;;5044754;28;19913;-68
2023/05/04 07:18:24;;;;;;;;;;;10.80;82.50;;;;;;5044552;28;19917;-68
2023/05/04 07:20:50;;;;;;;;;;;10.80;82.40;;;;;;5046631;28;20007;-68
2023/05/04 07:23:15;;;;;;;;;;;10.80;82.40;;;;;;5048318;28;19921;-69
2023/05/04 07:25:41;;;;;;;;;;;10.90;82.40;;;;;;5048393;28;20254;-69
2023/05/04 07:28:07;;;;;;;;;;;10.90;82.20;;;;;;5048448;28;20059;-69
2023/05/04 07:30:32;;;;;;;;;;;10.90;82.20;;;;;;5048400;28;19924;-68
2023/05/04 07:32:58;;;;;;;;;;;11.00;82.10;;;;;;5048167;28;19920;-69
2023/05/04 07:35:23;;;;;;;;;;;11.00;82.00;;;;;;5048406;28;19912;-69
2023/05/04 07:37:49;;;;;;;;;;;11.10;82.10;;;;;;5047540;28;20300;-68
2023/05/04 07:40:15;;;;;;;;;;;11.10;81.90;;;;;;5047617;28;19913;-68
2023/05/04 07:42:40;;;;;;;;;;;11.20;81.90;;;;;;5046602;28;20634;-69
2023/05/04 07:45:08;;;;;;;;;;;11.20;81.70;;;;;;5047690;28;19931;-68
2023/05/04 07:47:34;;;;;;;;;;;11.20;81.60;;;;;;5047778;28;19953;-68
2023/05/04 07:49:59;;;;;;;;;;;11.30;81.60;;;;;;5047584;28;19948;-68
2023/05/04 07:52:25;;;;;;;;;;;11.40;81.50;;;;;;5046855;28;19973;-69
2023/05/04 07:54:51;;;;;;;;;;;11.40;81.40;;;;;;5043119;28;20015;-69
2023/05/04 07:57:16;;;;;;;;;;;11.50;81.50;;;;;;5047026;28;19938;-68
2023/05/04 07:59:42;;;;;;;;;;;11.50;81.40;;;;;;5047476;28;19935;-69
2023/05/04 08:02:07;;;;;;;;;;;11.50;81.20;;;;;;5046806;28;20390;-69
2023/05/04 08:04:33;;;;;;;;;;;11.60;81.10;;;;;;5047463;28;20024;-69
2023/05/04 08:06:58;;;;;;;;;;;11.60;81.20;;;;;;5046675;28;19916;-69
2023/05/04 08:09:24;;;;;;;;;;;11.70;81.00;;;;;;5029007;28;19909;-68
2023/05/04 08:11:49;;;;;;;;;;;11.80;81.10;;;;;;5046919;28;19909;-69
2023/05/04 08:14:15;;;;;;;;;;;11.80;81.10;;;;;;5046973;28;19913;-69
2023/05/04 08:16:40;;;;;;;;;;;11.90;81.10;;;;;;5046805;28;19928;-68
2023/05/04 08:19:06;;;;;;;;;;;11.90;81.30;;;;;;5046889;28;19923;-69
2023/05/04 08:21:31;;;;;;;;;;;12.00;80.90;;;;;;5046695;28;20018;-69
2023/05/04 08:23:57;;;;;;;;;;;12.10;80.80;;;;;;5028637;28;20003;-69
2023/05/04 08:26:23;;;;;;;;;;;12.10;80.90;;;;;;5046847;28;19913;-68
2023/05/04 08:28:48;;;;;;;;;;;12.20;80.80;;;;;;5046871;28;20004;-68
2023/05/04 08:31:15;;;;;;;;;;;12.30;80.90;;;;;;5045805;28;20579;-69
2023/05/04 08:33:40;;;;;;;;;;;12.40;80.60;;;;;;5046224;28;19932;-69
2023/05/04 08:36:06;;;;;;;;;;;12.40;80.60;;;;;;5046786;28;20391;-69
2023/05/04 08:38:32;;;;;;;;;;;12.50;80.60;;;;;;5046538;28;20352;-69
2023/05/04 08:41:00;;;;;;;;;;;12.50;80.30;;;;;;5046539;28;19909;-69
2023/05/04 08:43:26;;;;;;;;;;;12.60;80.30;;;;;;5046205;28;19913;-69
2023/05/04 08:45:52;;;;;;;;;;;12.70;80.40;;;;;;5046642;28;19964;-69
2023/05/04 08:48:18;;;;;;;;;;;12.70;80.60;;;;;;5046707;28;19944;-69
2023/05/04 08:50:44;;;;;;;;;;;12.80;80.70;;;;;;5046554;28;19917;-69
2023/05/04 08:53:11;;;;;;;;;;;12.80;80.30;;;;;;5046295;28;19969;-69
2023/05/04 08:55:37;;;;;;;;;;;12.90;81.30;;;;;;5045994;28;19958;-69
2023/05/04 08:58:13;;;;;;;;;;;13.00;80.30;;;;;;5046231;28;20381;-68
2023/05/04 09:00:40;;;;;;;;;;;13.00;80.60;;;;;;5046343;28;19985;-69
2023/05/04 09:03:09;;;;;;;;;;;13.10;80.30;;;;;;5045984;28;19908;-69
2023/05/04 09:05:34;;;;;;;;;;;13.10;80.20;;;;;;5038974;28;19912;-68
2023/05/04 09:08:00;;;;;;;;;;;13.20;80.00;;;;;;5046115;28;20384;-68
2023/05/04 09:10:26;;;;;;;;;;;13.30;80.40;;;;;;5046924;28;19912;-68
2023/05/04 09:12:54;;;;;;;;;;;13.40;80.70;;;;;;5046721;28;19912;-68
2023/05/04 09:15:20;;;;;;;;;;;13.40;79.80;;;;;;5046973;28;20384;-68
2023/05/04 09:17:55;;;;;;;;;;;13.50;79.80;;;;;;5046572;28;19940;-69
2023/05/04 09:20:20;;;;;;;;;;;13.50;80.10;;;;;;5046603;28;19917;-69
2023/05/04 09:22:46;;;;;;;;;;;13.60;80.00;;;;;;5046421;28;19928;-68
2023/05/04 09:25:12;;;;;;;;;;;13.70;80.20;;;;;;5046973;28;19951;-68
2023/05/04 09:27:40;;;;;;;;;;;13.70;80.10;;;;;;5046616;28;19913;-68
2023/05/04 09:30:06;;;;;;;;;;;13.80;80.40;;;;;;5028816;28;20007;-69
2023/05/04 09:32:35;;;;;;;;;;;13.80;80.50;;;;;;5045331;28;20000;-69
2023/05/04 09:35:01;;;;;;;;;;;13.90;80.50;;;;;;5046712;28;20403;-69
2023/05/04 09:37:26;;;;;;;;;;;14.00;80.20;;;;;;5046372;28;19913;-69
2023/05/04 09:39:57;;;;;;;;;;;14.10;80.20;;;;;;5046657;28;19919;-69
2023/05/04 09:42:23;;;;;;;;;;;14.20;80.10;;;;;;5045842;28;20004;-69
2023/05/04 09:45:02;;;;;;;;;;;14.30;80.00;;;;;;5028486;28;19913;-69
2023/05/04 09:47:46;;;;;;;;;;;14.30;80.00;;;;;;5046238;28;19934;-69
2023/05/04 09:50:16;;;;;;;;;;;14.40;79.90;;;;;;5028415;28;20015;-69
2023/05/04 09:52:43;;;;;;;;;;;14.50;79.80;;;;;;5045854;28;20322;-70
2023/05/04 09:55:12;;;;;;;;;;;14.60;79.70;;;;;;5027915;28;20299;-69
2023/05/04 09:57:39;;;;;;;;;;;14.70;80.30;;;;;;5045769;28;19996;-69
2023/05/04 10:00:05;;;;;;;;;;;14.70;79.60;;;;;;5046192;28;19909;-69
2023/05/04 10:02:31;;;;;;;;;;;14.80;79.50;;;;;;5045646;28;19916;-69
2023/05/04 10:04:57;;;;;;;;;;;14.90;79.40;;;;;;5046193;28;19927;-69
2023/05/04 10:07:23;;;;;;;;;;;15.00;79.20;;;;;;5030626;28;19912;-69
2023/05/04 10:09:50;;;;;;;;;;;15.00;79.50;;;;;;5046098;28;19924;-69
2023/05/04 10:12:15;;;;;;;;;;;15.10;79.30;;;;;;5045761;28;20035;-69
2023/05/04 10:14:45;;;;;;;;;;;15.20;79.50;;;;;;5028339;28;20035;-69
2023/05/04 10:17:11;;;;;;;;;;;15.20;79.50;;;;;;5045927;28;20046;-70
2023/05/04 10:19:55;;;;;;;;;;;15.30;79.50;;;;;;5045960;28;20004;-70
2023/05/04 10:22:23;;;;;;;;;;;15.40;79.60;;;;;;5045397;28;20453;-70
2023/05/04 10:25:05;;;;;;;;;;;15.50;79.80;;;;;;5045892;28;19913;-69
2023/05/04 10:27:48;;;;;;;;;;;15.60;79.80;;;;;;5045798;28;19909;-70
2023/05/04 10:30:15;;;;;;;;;;;15.70;79.90;;;;;;5045457;28;20548;-69
2023/05/04 10:32:41;;;;;;;;;;;15.80;80.00;;;;;;5045150;28;20404;-70
2023/05/04 10:35:07;;;;;;;;;;;15.90;80.20;;;;;;5045421;28;19956;-70
2023/05/04 10:37:34;;;;;;;;;;;16.00;80.10;;;;;;5027553;28;19920;-70
2023/05/04 10:40:00;;;;;;;;;;;16.10;79.80;;;;;;5045650;28;19923;-69
2023/05/04 10:42:26;;;;;;;;;;;16.20;80.60;;;;;;5045305;28;19909;-70
2023/05/04 10:44:53;;;;;;;;;;;16.40;80.10;;;;;;5045635;28;19956;-70
2023/05/04 10:47:26;;;;;;;;;;;16.40;80.60;;;;;;5045500;28;20403;-70
2023/05/04 10:49:59;;;;;;;;;;;16.50;80.40;;;;;;5045778;28;19970;-70
2023/05/04 10:52:25;;;;;;;;;;;16.60;80.40;;;;;;5045270;28;19909;-70
2023/05/04 10:54:57;;;;;;;;;;;16.80;80.90;;;;;;5040634;28;19934;-70
2023/05/04 10:57:22;;;;;;;;;;;16.90;79.60;;;;;;5045190;28;19920;-70
2023/05/04 10:59:55;;;;;;;;;;;17.00;80.60;;;;;;5045671;28;19913;-70
2023/05/04 11:02:22;;;;;;;;;;;17.10;79.90;;;;;;5044954;28;19940;-70
2023/05/04 11:04:57;;;;;;;;;;;17.30;79.40;;;;;;5045324;28;19927;-70
2023/05/04 11:07:31;;;;;;;;;;;17.40;80.60;;;;;;5045091;28;19955;-70
2023/05/04 11:09:58;;;;;;;;;;;17.50;79.10;;;;;;5045403;28;19916;-70
2023/05/04 11:12:23;;;;;;;;;;;17.70;80.10;;;;;;5026589;28;19916;-70
2023/05/04 11:14:49;;;;;;;;;;;17.80;79.80;;;;;;5045332;28;19913;-70
2023/05/04 11:17:15;;;;;;;;;;;18.00;80.20;;;;;;5045064;28;19916;-70
2023/05/04 11:19:48;;;;;;;;;;;18.00;80.10;;;;;;5045222;28;19913;-70
2023/05/04 11:22:14;;;;;;;;;;;18.10;80.50;;;;;;5044639;28;19953;-70
2023/05/04 11:24:44;;;;;;;;;;;18.20;81.00;;;;;;5045157;28;19951;-70
2023/05/04 11:27:20;;;;;;;;;;;18.20;81.10;;;;;;5027146;28;19909;-70
2023/05/04 11:29:52;;;;;;;;;;;18.30;81.10;;;;;;5045038;28;19970;-70
2023/05/04 11:32:18;;;;;;;;;;;18.40;81.20;;;;;;5044573;28;20376;-70
2023/05/04 11:34:44;;;;;;;;;;;18.50;81.30;;;;;;5044945;28;19912;-70
2023/05/04 11:37:11;;;;;;;;;;;18.60;81.30;;;;;;5044108;28;19936;-70
2023/05/04 11:39:37;;;;;;;;;;;18.70;81.50;;;;;;5044139;28;19921;-69
2023/05/04 11:42:06;;;;;;;;;;;18.80;81.50;;;;;;5043546;28;20395;-70
2023/05/04 11:44:32;;;;;;;;;;;18.90;81.60;;;;;;5026086;28;19982;-70
2023/05/04 11:46:58;;;;;;;;;;;18.90;81.40;;;;;;5043868;28;19913;-70
2023/05/04 11:49:26;;;;;;;;;;;19.00;81.60;;;;;;5043975;28;20000;-70
2023/05/04 11:51:51;;;;;;;;;;;19.10;81.80;;;;;;5043436;28;19927;-70
2023/05/04 11:54:23;;;;;;;;;;;19.20;81.80;;;;;;5039982;28;19913;-70
2023/05/04 11:56:49;;;;;;;;;;;19.30;82.00;;;;;;5043502;28;20032;-70
2023/05/04 11:59:14;;;;;;;;;;;19.40;82.00;;;;;;5043479;28;20016;-70
2023/05/04 12:01:40;;;;;;;;;;;19.50;82.00;;;;;;5043826;28;20005;-70
2023/05/04 12:04:06;;;;;;;;;;;19.60;81.90;;;;;;5054386;27;19928;-70
2023/05/04 12:06:32;;;;;;;;;;;19.60;81.90;;;;;;5048829;27;19915;-69
2023/05/04 12:09:04;;;;;;;;;;;19.70;82.00;;;;;;5089763;27;19919;-70
2023/05/04 12:11:30;;;;;;;;;;;19.80;82.00;;;;;;5049074;28;19913;-70
2023/05/04 12:14:03;;;;;;;;;;;19.80;82.20;;;;;;5047905;28;19909;-70
2023/05/04 12:16:28;;;;;;;;;;;19.90;82.40;;;;;;5046906;28;19924;-70
2023/05/04 12:19:07;;;;;;;;;;;19.90;82.40;;;;;;5047622;28;19917;-70
2023/05/04 12:21:33;;;;;;;;;;;20.00;82.70;;;;;;5047716;28;19973;-70
2023/05/04 12:23:59;;;;;;;;;;;20.10;81.80;;;;;;5047527;28;19913;-70
2023/05/04 12:26:25;;;;;;;;;;;20.20;82.40;;;;;;5047534;28;20571;-70
2023/05/04 12:28:50;;;;;;;;;;;20.30;82.40;;;;;;5047584;28;19913;-70
2023/05/04 12:31:16;;;;;;;;;;;20.30;82.60;;;;;;5047651;28;19955;-70
2023/05/04 12:33:41;;;;;;;;;;;20.30;82.50;;;;;;5047369;28;20032;-70
2023/05/04 12:36:07;;;;;;;;;;;20.50;82.60;;;;;;5029414;28;19928;-70
2023/05/04 12:38:33;;;;;;;;;;;20.50;81.00;;;;;;5047440;28;19917;-70
2023/05/04 12:41:01;;;;;;;;;;;20.50;82.60;;;;;;5047470;28;20396;-70
2023/05/04 12:43:27;;;;;;;;;;;20.60;82.60;;;;;;5047217;28;20396;-70
2023/05/04 12:45:52;;;;;;;;;;;20.70;82.70;;;;;;5029671;28;19920;-70
2023/05/04 12:48:21;;;;;;;;;;;20.70;82.60;;;;;;5047566;28;19963;-70
2023/05/04 12:50:47;;;;;;;;;;;20.70;82.70;;;;;;5047565;28;19935;-70
2023/05/04 12:53:13;;;;;;;;;;;20.80;82.80;;;;;;5029289;28;19909;-70
2023/05/04 12:55:39;;;;;;;;;;;20.90;82.50;;;;;;5046881;28;20361;-70
2023/05/04 12:58:04;;;;;;;;;;;20.90;82.10;;;;;;5047211;28;19909;-70
2023/05/04 13:00:30;;;;;;;;;;;21.00;82.10;;;;;;5047312;27;19909;-70
2023/05/04 13:02:57;;;;;;;;;;;21.10;82.50;;;;;;5046885;28;19948;-70
2023/05/04 13:05:23;;;;;;;;;;;21.10;82.20;;;;;;5046899;28;20007;-70
2023/05/04 13:07:48;;;;;;;;;;;21.20;82.20;;;;;;5044729;28;20579;-70
2023/05/04 13:10:14;;;;;;;;;;;21.30;82.60;;;;;;5042003;28;19952;-70
2023/05/04 13:12:40;;;;;;;;;;;21.30;82.10;;;;;;5046206;28;20366;-70
2023/05/04 13:15:06;;;;;;;;;;;21.40;82.50;;;;;;5046537;28;19940;-70
2023/05/04 13:17:33;;;;;;;;;;;21.50;82.30;;;;;;5045993;28;19912;-70
2023/05/04 13:19:59;;;;;;;;;;;21.50;80.50;;;;;;5029195;28;19913;-70
2023/05/04 13:22:25;;;;;;;;;;;21.60;81.50;;;;;;5042825;28;19921;-70
2023/05/04 13:24:51;;;;;;;;;;;21.70;81.60;;;;;;5046718;28;19916;-70
2023/05/04 13:27:16;;;;;;;;;;;21.70;80.70;;;;;;5047016;28;20619;-70
2023/05/04 13:29:43;;;;;;;;;;;21.70;81.30;;;;;;5046007;28;19920;-70
2023/05/04 13:32:09;;;;;;;;;;;21.80;80.50;;;;;;5046192;28;20344;-70
2023/05/04 13:34:36;;;;;;;;;;;21.80;81.60;;;;;;5045868;28;20224;-70
2023/05/04 13:37:01;;;;;;;;;;;21.90;81.50;;;;;;5045050;28;19956;-70
2023/05/04 13:39:27;;;;;;;;;;;21.90;80.70;;;;;;5046480;28;20483;-70
2023/05/04 13:41:53;;;;;;;;;;;22.00;81.00;;;;;;5046256;28;19913;-70
2023/05/04 13:44:18;;;;;;;;;;;22.10;81.00;;;;;;5046487;28;19920;-70
2023/05/04 13:46:44;;;;;;;;;;;22.20;78.40;;;;;;5046207;28;19924;-70
2023/05/04 13:49:09;;;;;;;;;;;22.20;80.60;;;;;;5028572;28;19908;-71
2023/05/04 13:51:36;;;;;;;;;;;22.20;78.00;;;;;;5028293;28;19966;-71
2023/05/04 13:54:01;;;;;;;;;;;22.30;80.10;;;;;;5027941;28;20011;-70
2023/05/04 13:56:27;;;;;;;;;;;22.40;79.80;;;;;;5045810;28;19913;-71
2023/05/04 13:58:54;;;;;;;;;;;22.50;78.40;;;;;;5046116;28;19920;-70
2023/05/04 14:01:20;;;;;;;;;;;22.50;78.90;;;;;;5045988;28;19909;-70
2023/05/04 14:03:45;;;;;;;;;;;22.50;77.90;;;;;;5045958;28;19942;-69
2023/05/04 14:06:11;;;;;;;;;;;22.60;79.00;;;;;;5046299;28;19912;-68
2023/05/04 14:08:36;;;;;;;;;;;22.60;79.00;;;;;;5046132;28;20501;-68
2023/05/04 14:11:02;;;;;;;;;;;22.60;79.00;;;;;;5046227;28;20366;-68